createdAt,value
2019-02-26T00:00:14.421Z,100779.44
2019-02-26T00:02:41.498Z,100779.44
2019-02-26T00:05:08.331Z,100785.67
2019-02-26T00:07:35.119Z,100781.03
2019-02-26T00:10:04.462Z,100778.90
2019-02-26T00:12:30.991Z,100777.33
2019-02-26T00:15:02.391Z,100777.33
2019-02-26T00:17:28.296Z,100770.64
2019-02-26T00:19:56.210Z,100770.64
2019-02-26T00:22:23.053Z,100778.81
2019-02-26T00:24:50.123Z,100782.25
2019-02-26T00:27:16.862Z,100790.33
2019-02-26T00:29:46.461Z,100790.67
2019-02-26T00:32:16.158Z,100790.67
2019-02-26T00:34:43.489Z,100796.09
2019-02-26T00:37:10.236Z,100796.09
2019-02-26T00:39:36.955Z,100809.54
2019-02-26T00:42:05.202Z,100796.93
2019-02-26T00:44:34.578Z,100794.36
2019-02-26T00:47:02.582Z,100784.89
2019-02-26T00:49:30.258Z,100789.91
2019-02-26T00:51:57.130Z,100782.64
2019-02-26T00:54:24.512Z,100779.05
2019-02-26T00:56:52.512Z,100779.05
2019-02-26T00:59:19.414Z,100778.04
2019-02-26T01:01:48.134Z,100775.39
2019-02-26T01:04:16.566Z,100775.39
2019-02-26T01:06:43.312Z,100775.72
2019-02-26T01:09:12.564Z,100775.33
2019-02-26T01:11:39.295Z,100771.30
2019-02-26T01:14:06.032Z,100770.53
2019-02-26T01:16:32.800Z,100758.61
2019-02-26T01:18:59.584Z,100758.61
2019-02-26T01:21:28.521Z,100775.41
2019-02-26T01:23:56.610Z,100764.95
2019-02-26T01:26:27.347Z,100765.64
2019-02-26T01:28:53.744Z,100768.13
2019-02-26T01:31:22.438Z,100772.72
2019-02-26T01:33:52.894Z,100773.52
2019-02-26T01:36:21.479Z,100774.52
2019-02-26T01:38:49.164Z,100762.22
2019-02-26T01:41:18.096Z,100746.41
2019-02-26T01:43:45.581Z,100738.61
2019-02-26T01:46:16.920Z,100746.45
2019-02-26T01:48:43.902Z,100743.84
2019-02-26T01:51:10.692Z,100735.84
2019-02-26T01:53:37.428Z,100721.91
2019-02-26T01:56:05.095Z,100721.91
2019-02-26T01:58:33.576Z,100728.41
2019-02-26T02:01:00.769Z,100716.90
2019-02-26T02:03:28.413Z,100723.80
2019-02-26T02:05:56.347Z,100723.36
2019-02-26T02:08:24.966Z,100724.77
2019-02-26T02:10:57.150Z,100712.97
2019-02-26T02:13:25.939Z,100720.72
2019-02-26T02:15:53.277Z,100720.72
2019-02-26T02:18:22.458Z,100721.39
2019-02-26T02:20:48.708Z,100719.08
2019-02-26T02:23:15.747Z,100719.19
2019-02-26T02:25:43.422Z,100708.09
2019-02-26T02:28:11.225Z,100708.09
2019-02-26T02:30:39.034Z,100705.52
2019-02-26T02:33:05.932Z,100711.87
2019-02-26T02:35:32.653Z,100717.43
2019-02-26T02:38:02.116Z,100709.97
2019-02-26T02:40:28.814Z,100710.48
2019-02-26T02:42:55.556Z,100705.48
2019-02-26T02:45:24.286Z,100701.04
2019-02-26T02:47:54.780Z,100701.34
2019-02-26T02:50:19.633Z,100697.53
2019-02-26T02:52:46.593Z,100695.02
2019-02-26T02:55:16.531Z,100695.70
2019-02-26T02:57:41.977Z,100695.73
2019-02-26T03:00:10.010Z,100700.08
2019-02-26T03:02:40.582Z,100704.55
2019-02-26T03:05:06.160Z,100694.73
2019-02-26T03:07:32.886Z,100698.87
2019-02-26T03:10:06.242Z,100695.31
2019-02-26T03:12:32.247Z,100730.98
2019-02-26T03:15:02.098Z,100694.10
2019-02-26T03:17:27.841Z,100692.77
2019-02-26T03:19:56.020Z,100698.66
2019-02-26T03:22:23.203Z,100694.41
2019-02-26T03:24:51.349Z,100689.09
2019-02-26T03:27:18.553Z,100695.80
2019-02-26T03:29:47.328Z,100693.34
2019-02-26T03:32:14.292Z,100684.66
2019-02-26T03:34:41.027Z,100693.98
2019-02-26T03:37:10.916Z,100687.14
2019-02-26T03:39:38.140Z,100687.63
2019-02-26T03:42:04.875Z,100678.48
2019-02-26T03:44:33.891Z,100678.48
2019-02-26T03:47:01.012Z,100686.35
2019-02-26T03:49:27.779Z,100722.78
2019-02-26T03:51:59.239Z,100675.88
2019-02-26T03:54:23.150Z,100675.88
2019-02-26T03:56:49.854Z,100676.34
2019-02-26T03:59:16.578Z,100690.68
2019-02-26T04:01:43.310Z,100684.46
2019-02-26T04:04:10.035Z,100685.13
2019-02-26T04:06:38.926Z,100685.69
2019-02-26T04:09:05.847Z,100687.97
2019-02-26T04:11:32.594Z,100694.22
2019-02-26T04:13:59.319Z,100688.37
2019-02-26T04:16:26.359Z,100688.15
2019-02-26T04:18:53.219Z,100679.85
2019-02-26T04:21:22.334Z,100675.50
2019-02-26T04:23:50.428Z,100678.45
2019-02-26T04:26:41.100Z,100682.07
2019-02-26T04:29:40.790Z,100678.64
2019-02-26T04:32:48.826Z,100674.94
2019-02-26T04:35:21.004Z,100674.09
2019-02-26T04:38:39.171Z,100674.66
2019-02-26T04:41:24.241Z,100711.42
2019-02-26T04:44:07.865Z,100670.41
2019-02-26T04:46:53.792Z,100671.17
2019-02-26T04:49:20.370Z,100669.64
2019-02-26T04:51:48.487Z,100665.55
2019-02-26T04:54:21.197Z,100658.38
2019-02-26T04:56:45.113Z,100668.09
2019-02-26T04:59:15.034Z,100669.07
2019-02-26T05:01:44.111Z,100657.31
2019-02-26T05:04:10.663Z,100661.27
2019-02-26T05:06:37.401Z,100657.41
2019-02-26T05:09:05.557Z,100706.08
2019-02-26T05:11:37.215Z,100654.25
2019-02-26T05:14:02.002Z,100660.00
2019-02-26T05:16:31.657Z,100655.96
2019-02-26T05:18:58.469Z,100652.64
2019-02-26T05:21:27.187Z,100665.98
2019-02-26T05:23:55.110Z,100654.48
2019-02-26T05:26:22.592Z,100651.52
2019-02-26T05:28:51.467Z,100655.16
2019-02-26T05:31:17.995Z,100702.94
2019-02-26T05:33:46.837Z,100652.20
2019-02-26T05:36:15.079Z,100666.14
2019-02-26T05:38:42.007Z,100669.73
2019-02-26T05:41:08.823Z,100663.25
2019-02-26T05:43:35.577Z,100664.71
2019-02-26T05:46:03.959Z,100666.89
2019-02-26T05:48:30.963Z,100667.69
2019-02-26T05:51:00.047Z,100669.20
2019-02-26T05:53:26.317Z,100669.35
2019-02-26T05:55:54.056Z,100680.27
2019-02-26T05:58:21.688Z,100679.95
2019-02-26T06:00:48.399Z,100667.98
2019-02-26T06:03:17.920Z,100674.19
2019-02-26T06:05:49.026Z,100681.58
2019-02-26T06:08:14.970Z,100677.00
2019-02-26T06:10:41.679Z,100683.37
2019-02-26T06:13:10.705Z,100680.78
2019-02-26T06:15:37.033Z,100684.03
2019-02-26T06:18:04.088Z,100687.94
2019-02-26T06:20:32.189Z,100685.20
2019-02-26T06:22:59.573Z,100685.69
2019-02-26T06:25:26.288Z,100684.53
2019-02-26T06:27:53.063Z,100690.57
2019-02-26T06:30:19.785Z,100688.30
2019-02-26T06:32:46.524Z,100695.34
2019-02-26T06:35:16.072Z,100694.85
2019-02-26T06:37:45.579Z,100696.14
2019-02-26T06:40:12.805Z,100701.52
2019-02-26T06:42:40.341Z,100705.59
2019-02-26T06:45:13.244Z,100721.55
2019-02-26T06:47:39.903Z,100702.13
2019-02-26T06:50:10.545Z,100704.81
2019-02-26T06:52:39.928Z,100711.67
2019-02-26T06:55:09.474Z,100714.73
2019-02-26T06:57:36.506Z,100712.12
2019-02-26T07:00:04.379Z,100710.95
2019-02-26T07:02:33.055Z,100717.77
2019-02-26T07:04:59.788Z,100717.27
2019-02-26T07:07:26.515Z,100714.52
2019-02-26T07:09:53.260Z,100722.47
2019-02-26T07:12:22.183Z,100724.38
2019-02-26T07:14:51.316Z,100720.77
2019-02-26T07:17:20.697Z,100718.63
2019-02-26T07:19:47.446Z,100771.50
2019-02-26T07:22:16.504Z,100735.42
2019-02-26T07:24:46.387Z,100726.13
2019-02-26T07:27:17.846Z,100731.64
2019-02-26T07:29:47.438Z,100732.77
2019-02-26T07:32:14.752Z,100737.95
2019-02-26T07:34:45.220Z,100729.91
2019-02-26T07:37:15.764Z,100731.83
2019-02-26T07:39:44.248Z,100737.39
2019-02-26T07:42:14.039Z,100736.88
2019-02-26T07:44:41.841Z,100737.18
2019-02-26T07:47:11.147Z,100736.45
2019-02-26T07:49:37.374Z,100740.34
2019-02-26T07:52:08.749Z,100724.91
2019-02-26T07:54:37.810Z,100749.81
2019-02-26T07:57:09.261Z,100738.44
2019-02-26T07:59:39.308Z,100735.14
2019-02-26T08:02:11.339Z,100739.55
2019-02-26T08:04:41.239Z,100739.13
2019-02-26T08:07:08.033Z,100735.98
2019-02-26T08:09:34.875Z,100738.81
2019-02-26T08:12:04.357Z,100735.87
2019-02-26T08:14:33.462Z,100734.23
2019-02-26T08:17:03.943Z,100736.75
2019-02-26T08:19:31.202Z,100736.61
2019-02-26T08:22:01.130Z,100725.35
2019-02-26T08:24:27.992Z,100732.06
2019-02-26T08:26:54.888Z,100732.49
2019-02-26T08:29:24.594Z,100737.63
2019-02-26T08:31:55.052Z,100722.17
2019-02-26T08:34:23.012Z,100722.17
2019-02-26T08:36:49.796Z,100727.34
2019-02-26T08:39:16.508Z,100734.09
2019-02-26T08:42:04.643Z,100734.34
2019-02-26T08:44:31.797Z,100732.95
2019-02-26T08:46:58.554Z,100710.58
2019-02-26T08:49:25.371Z,100710.58
2019-02-26T08:52:10.699Z,100709.77
2019-02-26T08:54:35.822Z,100707.62
2019-02-26T08:57:03.359Z,100758.75
2019-02-26T08:59:30.165Z,100703.23
2019-02-26T09:02:01.076Z,100689.56
2019-02-26T09:04:27.854Z,100687.09
2019-02-26T09:06:55.448Z,100687.09
2019-02-26T09:09:25.345Z,100690.14
2019-02-26T09:11:57.995Z,100685.39
2019-02-26T09:14:27.102Z,100685.59
2019-02-26T09:16:54.960Z,100686.47
2019-02-26T09:19:30.197Z,100682.22
2019-02-26T09:21:56.898Z,100684.51
2019-02-26T09:24:23.667Z,100684.91
2019-02-26T09:26:52.114Z,100680.92
2019-02-26T09:29:19.757Z,100679.12
2019-02-26T09:31:51.116Z,100683.33
2019-02-26T09:34:19.949Z,100681.67
2019-02-26T09:36:50.661Z,100684.05
2019-02-26T09:39:16.400Z,100678.59
2019-02-26T09:41:45.433Z,100679.43
2019-02-26T09:44:11.898Z,100675.98
2019-02-26T09:46:39.371Z,100625.02
2019-02-26T09:49:11.842Z,100676.40
2019-02-26T09:51:39.965Z,100667.50
2019-02-26T09:54:13.224Z,100663.71
2019-02-26T09:56:40.013Z,100667.33
2019-02-26T09:59:14.772Z,100665.80
2019-02-26T10:01:42.844Z,100656.56
2019-02-26T10:04:09.834Z,100659.00
2019-02-26T10:06:37.948Z,100654.89
2019-02-26T10:09:05.649Z,100648.62
2019-02-26T10:11:32.604Z,100653.21
2019-02-26T10:13:59.388Z,100654.09
2019-02-26T10:16:28.141Z,100652.02
2019-02-26T10:18:56.762Z,100641.86
2019-02-26T10:21:23.512Z,100637.56
2019-02-26T10:23:52.179Z,100644.73
2019-02-26T10:26:21.306Z,100647.19
2019-02-26T10:28:53.582Z,100644.34
2019-02-26T10:31:23.953Z,100679.83
2019-02-26T10:33:50.740Z,100649.97
2019-02-26T10:36:18.438Z,100650.20
2019-02-26T10:38:45.800Z,100653.11
2019-02-26T10:41:12.665Z,100647.00
2019-02-26T10:43:40.895Z,100649.99
2019-02-26T10:46:07.994Z,100644.36
2019-02-26T10:48:34.751Z,100637.94
2019-02-26T10:51:06.070Z,100640.33
2019-02-26T10:53:30.230Z,100644.63
2019-02-26T10:56:00.160Z,100635.25
2019-02-26T10:58:27.162Z,100638.77
2019-02-26T11:00:55.706Z,100634.70
2019-02-26T11:03:24.640Z,100666.78
2019-02-26T11:05:52.333Z,100637.58
2019-02-26T11:08:26.181Z,100630.88
2019-02-26T11:10:52.422Z,100629.76
2019-02-26T11:13:20.952Z,100627.24
2019-02-26T11:15:48.917Z,100626.56
2019-02-26T11:18:18.116Z,100629.16
2019-02-26T11:20:47.761Z,100617.16
2019-02-26T11:23:16.095Z,100618.62
2019-02-26T11:25:43.368Z,100620.37
2019-02-26T11:28:12.838Z,100612.70
2019-02-26T11:30:39.345Z,100603.76
2019-02-26T11:33:08.603Z,100596.80
2019-02-26T11:35:34.936Z,100604.56
2019-02-26T11:38:01.694Z,100601.51
2019-02-26T11:40:31.115Z,100590.95
2019-02-26T11:43:00.180Z,100587.97
2019-02-26T11:45:26.961Z,100600.64
2019-02-26T11:47:55.785Z,100587.11
2019-02-26T11:50:27.107Z,100586.43
2019-02-26T11:52:54.251Z,100590.25
2019-02-26T11:55:19.639Z,100585.55
2019-02-26T11:57:47.923Z,100577.88
2019-02-26T12:00:25.353Z,100579.56
2019-02-26T12:02:50.201Z,100572.13
2019-02-26T12:05:18.868Z,100576.42
2019-02-26T12:07:46.224Z,100571.40
2019-02-26T12:10:14.783Z,100570.11
2019-02-26T12:12:41.577Z,100565.63
2019-02-26T12:15:12.411Z,100568.35
2019-02-26T12:17:41.973Z,100572.38
2019-02-26T12:20:14.774Z,100564.39
2019-02-26T12:22:44.524Z,100569.50
2019-02-26T12:25:11.226Z,100556.68
2019-02-26T12:27:39.041Z,100551.09
2019-02-26T12:30:13.355Z,100557.24
2019-02-26T12:32:41.689Z,100558.03
2019-02-26T12:35:11.974Z,100557.79
2019-02-26T12:37:39.730Z,100550.30
2019-02-26T12:40:10.327Z,100554.04
2019-02-26T12:42:36.622Z,100554.08
2019-02-26T12:45:07.831Z,100548.98
2019-02-26T12:47:43.017Z,100538.02
2019-02-26T12:50:12.557Z,100549.50
2019-02-26T12:52:39.244Z,100538.52
2019-02-26T12:55:08.143Z,100533.13
2019-02-26T12:57:34.998Z,100525.87
2019-02-26T13:00:01.789Z,100510.33
2019-02-26T13:02:28.551Z,100514.81
2019-02-26T13:04:55.638Z,100507.84
2019-02-26T13:07:22.519Z,100503.22
2019-02-26T13:09:51.998Z,100495.91
2019-02-26T13:12:20.564Z,100503.88
2019-02-26T13:14:50.162Z,100511.05
2019-02-26T13:17:21.020Z,100489.48
2019-02-26T13:19:49.262Z,100520.45
2019-02-26T13:22:17.982Z,100525.39
2019-02-26T13:24:45.731Z,100491.15
2019-02-26T13:27:12.871Z,100484.09
2019-02-26T13:29:53.466Z,100524.45
2019-02-26T13:32:17.215Z,100483.42
2019-02-26T13:34:42.070Z,100478.53
2019-02-26T13:37:08.846Z,100478.31
2019-02-26T13:39:38.382Z,100471.78
2019-02-26T13:44:33.560Z,100470.03
2019-02-26T13:47:05.085Z,100465.16
2019-02-26T13:49:32.053Z,100465.41
2019-02-26T13:51:59.325Z,100460.37
2019-02-26T13:54:26.063Z,100455.13
2019-02-26T13:56:52.798Z,100456.80
2019-02-26T13:59:19.521Z,100461.16
2019-02-26T14:01:46.278Z,100459.66
2019-02-26T14:04:13.229Z,100457.64
2019-02-26T14:06:42.370Z,100453.09
2019-02-26T14:09:09.667Z,100450.12
2019-02-26T14:11:36.414Z,100442.97
2019-02-26T14:14:03.201Z,100437.42
2019-02-26T14:16:33.045Z,100434.01
2019-02-26T14:19:00.629Z,100426.56
2019-02-26T14:21:30.543Z,100435.84
2019-02-26T14:23:57.628Z,100433.81
2019-02-26T14:26:24.468Z,100431.64
2019-02-26T14:28:51.473Z,100424.19
2019-02-26T14:31:20.460Z,100455.94
2019-02-26T14:33:47.152Z,100444.43
2019-02-26T14:36:14.163Z,100426.43
2019-02-26T14:38:40.979Z,100418.11
2019-02-26T14:41:07.740Z,100416.66
2019-02-26T14:43:34.814Z,100421.33
2019-02-26T14:46:04.549Z,100411.51
2019-02-26T14:48:31.277Z,100407.73
2019-02-26T14:50:58.052Z,100408.32
2019-02-26T14:53:24.799Z,100409.70
2019-02-26T14:55:53.130Z,100405.12
2019-02-26T14:58:20.104Z,100406.27
2019-02-26T15:00:57.178Z,100397.72
2019-02-26T15:03:18.548Z,100406.33
2019-02-26T15:05:45.528Z,100406.53
2019-02-26T15:08:15.379Z,100395.08
2019-02-26T15:10:42.082Z,100392.05
2019-02-26T15:13:09.580Z,100390.77
2019-02-26T15:15:38.987Z,100394.98
2019-02-26T15:18:09.758Z,100387.60
2019-02-26T15:20:36.498Z,100425.65
2019-02-26T15:23:06.257Z,100387.44
2019-02-26T15:25:37.145Z,100389.09
2019-02-26T15:28:05.582Z,100386.20
2019-02-26T15:30:32.607Z,100386.98
2019-02-26T15:33:10.543Z,100386.47
2019-02-26T15:35:33.625Z,100393.52
2019-02-26T15:38:03.384Z,100411.47
2019-02-26T15:40:30.197Z,100385.77
2019-02-26T15:42:59.577Z,100383.13
2019-02-26T15:45:28.899Z,100380.73
2019-02-26T15:47:55.161Z,100380.23
2019-02-26T15:50:24.586Z,100384.55
2019-02-26T15:52:53.641Z,100384.05
2019-02-26T15:55:23.135Z,100395.05
2019-02-26T15:57:53.003Z,100383.30
2019-02-26T16:00:20.128Z,100382.77
2019-02-26T16:02:48.163Z,100385.98
2019-02-26T16:05:17.254Z,100380.41
2019-02-26T16:07:46.343Z,100383.37
2019-02-26T16:10:15.040Z,100375.41
2019-02-26T16:12:42.574Z,100378.39
2019-02-26T16:15:10.238Z,100382.64
2019-02-26T16:17:36.985Z,100377.58
2019-02-26T16:20:08.965Z,100375.97
2019-02-26T16:22:35.700Z,100404.61
2019-02-26T16:25:02.482Z,100378.70
2019-02-26T16:27:37.514Z,100384.05
2019-02-26T16:30:03.509Z,100380.05
2019-02-26T16:32:30.253Z,100370.73
2019-02-26T16:34:57.120Z,100378.47
2019-02-26T16:37:24.319Z,100371.27
2019-02-26T16:39:51.049Z,100374.22
2019-02-26T16:42:18.062Z,100420.99
2019-02-26T16:44:45.201Z,100381.45
2019-02-26T16:47:14.639Z,100389.22
2019-02-26T16:49:47.241Z,100387.07
2019-02-26T16:52:17.827Z,100381.48
2019-02-26T16:54:44.796Z,100381.19
2019-02-26T16:57:11.527Z,100373.20
2019-02-26T16:59:40.873Z,100379.09
2019-02-26T17:02:08.773Z,100396.71
2019-02-26T17:04:35.599Z,100390.02
2019-02-26T17:07:02.431Z,100385.22
2019-02-26T17:09:29.731Z,100379.83
2019-02-26T17:12:04.577Z,100402.00
2019-02-26T17:14:34.566Z,100414.50
2019-02-26T17:17:03.917Z,100389.96
2019-02-26T17:19:34.549Z,100398.46
2019-02-26T17:22:04.543Z,100412.04
2019-02-26T17:24:33.131Z,100391.77
2019-02-26T17:27:00.233Z,100405.88
2019-02-26T17:29:27.345Z,100409.31
2019-02-26T17:31:54.091Z,100398.11
2019-02-26T17:34:24.563Z,100390.66
2019-02-26T17:36:51.312Z,100400.75
2019-02-26T17:39:23.638Z,100412.44
2019-02-26T17:41:50.008Z,100421.19
2019-02-26T17:44:20.626Z,100416.86
2019-02-26T17:46:51.098Z,100418.42
2019-02-26T17:49:18.086Z,100426.90
2019-02-26T17:51:45.764Z,100423.96
2019-02-26T17:54:13.022Z,100438.30
2019-02-26T17:56:43.671Z,100441.21
2019-02-26T17:59:16.554Z,100446.52
2019-02-26T18:01:44.772Z,100437.97
2019-02-26T18:04:11.761Z,100449.91
2019-02-26T18:06:41.554Z,100447.73
2019-02-26T18:09:08.746Z,100447.17
2019-02-26T18:11:36.577Z,100442.32
2019-02-26T18:14:05.316Z,100433.19
2019-02-26T18:16:35.898Z,100438.59
2019-02-26T18:19:02.878Z,100461.41
2019-02-26T18:21:36.914Z,100430.81
2019-02-26T18:24:03.750Z,100436.11
2019-02-26T18:26:30.503Z,100434.89
2019-02-26T18:28:57.660Z,100425.69
2019-02-26T18:31:26.640Z,100418.78
2019-02-26T18:33:55.781Z,100421.30
2019-02-26T18:36:22.652Z,100421.73
2019-02-26T18:38:53.862Z,100417.90
2019-02-26T18:41:24.807Z,100419.25
2019-02-26T18:43:54.397Z,100416.66
2019-02-26T18:46:22.565Z,100414.13
2019-02-26T18:48:49.514Z,100415.50
2019-02-26T18:51:16.570Z,100418.58
2019-02-26T18:53:44.589Z,100430.42
2019-02-26T18:56:12.268Z,100429.17
2019-02-26T18:58:39.151Z,100447.34
2019-02-26T19:01:07.672Z,100422.59
2019-02-26T19:03:34.652Z,100420.52
2019-02-26T19:06:01.412Z,100412.59
2019-02-26T19:08:28.252Z,100414.07
2019-02-26T19:10:54.991Z,100413.61
2019-02-26T19:13:21.826Z,100416.08
2019-02-26T19:15:52.072Z,100412.38
2019-02-26T19:18:18.855Z,100409.81
2019-02-26T19:20:48.851Z,100415.46
2019-02-26T19:23:14.305Z,100408.22
2019-02-26T19:25:41.608Z,100419.12
2019-02-26T19:28:09.897Z,100414.77
2019-02-26T19:30:37.507Z,100463.91
2019-02-26T19:33:04.464Z,100421.03
2019-02-26T19:35:35.063Z,100421.22
2019-02-26T19:38:03.488Z,100422.55
2019-02-26T19:40:32.945Z,100421.48
2019-02-26T19:43:01.753Z,100422.36
2019-02-26T19:45:28.483Z,100426.33
2019-02-26T19:47:57.281Z,100424.88
2019-02-26T19:50:24.426Z,100426.05
2019-02-26T19:52:56.888Z,100424.08
2019-02-26T19:55:23.128Z,100420.73
2019-02-26T19:57:50.019Z,100421.42
2019-02-26T20:00:19.676Z,100428.14
2019-02-26T20:02:45.527Z,100426.78
2019-02-26T20:05:12.862Z,100424.88
2019-02-26T20:07:39.830Z,100422.92
2019-02-26T20:10:12.860Z,100424.52
2019-02-26T20:12:41.447Z,100417.64
2019-02-26T20:15:09.417Z,100432.59
2019-02-26T20:17:36.230Z,100422.48
2019-02-26T20:20:05.183Z,100418.11
2019-02-26T20:22:33.395Z,100419.46
2019-02-26T20:25:02.267Z,100415.08
2019-02-26T20:27:29.100Z,100414.61
2019-02-26T20:29:55.870Z,100415.54
2019-02-26T20:32:22.612Z,100410.73
2019-02-26T20:34:49.524Z,100419.02
2019-02-26T20:37:16.243Z,100423.22
2019-02-26T20:39:44.211Z,100417.91
2019-02-26T20:42:11.121Z,100407.85
2019-02-26T20:44:38.011Z,100414.73
2019-02-26T20:47:06.971Z,100411.66
2019-02-26T20:49:33.686Z,100405.88
2019-02-26T20:52:00.922Z,100409.33
2019-02-26T20:54:27.682Z,100408.01
2019-02-26T20:56:54.475Z,100405.45
2019-02-26T20:59:21.242Z,100420.55
2019-02-26T21:01:49.586Z,100410.56
2019-02-26T21:04:16.850Z,100432.80
2019-02-26T21:06:45.520Z,100415.33
2019-02-26T21:09:14.032Z,100406.33
2019-02-26T21:11:42.139Z,100404.49
2019-02-26T21:14:09.528Z,100410.27
2019-02-26T21:16:38.109Z,100424.27
2019-02-26T21:19:06.669Z,100409.75
2019-02-26T21:21:33.384Z,100405.77
2019-02-26T21:24:00.924Z,100404.08
2019-02-26T21:26:28.233Z,100407.03
2019-02-26T21:28:56.166Z,100400.30
2019-02-26T21:31:23.216Z,100404.09
2019-02-26T21:33:49.965Z,100396.98
2019-02-26T21:36:17.356Z,100404.50
2019-02-26T21:38:44.239Z,100412.10
2019-02-26T21:41:11.346Z,100400.10
2019-02-26T21:43:41.565Z,100410.02
2019-02-26T21:46:08.291Z,100409.47
2019-02-26T21:48:36.710Z,100404.62
2019-02-26T21:51:03.641Z,100409.97
2019-02-26T21:53:30.371Z,100405.09
2019-02-26T21:55:57.111Z,100398.23
2019-02-26T21:58:26.650Z,100394.02
2019-02-26T22:00:52.479Z,100401.09
2019-02-26T22:03:20.092Z,100397.20
2019-02-26T22:05:46.804Z,100397.42
2019-02-26T22:08:16.560Z,100397.39
2019-02-26T22:10:43.505Z,100398.75
2019-02-26T22:13:10.424Z,100393.20
2019-02-26T22:15:37.174Z,100398.42
2019-02-26T22:18:05.997Z,100396.41
2019-02-26T22:20:36.223Z,100398.59
2019-02-26T22:23:01.326Z,100401.73
2019-02-26T22:25:29.349Z,100404.30
2019-02-26T22:27:56.286Z,100406.52
2019-02-26T22:30:23.062Z,100397.96
2019-02-26T22:32:49.785Z,100403.56
2019-02-26T22:35:16.527Z,100413.17
2019-02-26T22:37:43.362Z,100402.37
2019-02-26T22:40:10.234Z,100389.21
2019-02-26T22:42:38.821Z,100391.43
2019-02-26T22:45:05.961Z,100401.08
2019-02-26T22:47:32.661Z,100387.41
2019-02-26T22:49:59.638Z,100389.86
2019-02-26T22:52:30.650Z,100397.94
2019-02-26T22:54:54.972Z,100390.30
2019-02-26T22:57:21.760Z,100392.95
2019-02-26T22:59:48.504Z,100389.59
2019-02-26T23:02:15.208Z,100402.13
2019-02-26T23:04:42.312Z,100397.81
2019-02-26T23:07:09.191Z,100388.73
2019-02-26T23:09:35.997Z,100387.92
2019-02-26T23:12:04.811Z,100391.97
2019-02-26T23:14:31.975Z,100393.28
2019-02-26T23:16:59.206Z,100391.66
2019-02-26T23:19:25.944Z,100390.95
2019-02-26T23:21:52.723Z,100395.49
2019-02-26T23:24:19.818Z,100390.34
2019-02-26T23:26:47.175Z,100385.80
2019-02-26T23:29:13.939Z,100380.16
2019-02-26T23:31:40.714Z,100380.76
2019-02-26T23:34:07.445Z,100385.63
2019-02-26T23:36:34.457Z,100384.48
2019-02-26T23:39:01.180Z,100382.47
2019-02-26T23:41:27.920Z,100387.01
2019-02-26T23:43:54.642Z,100382.17
2019-02-26T23:46:21.379Z,100382.17
2019-02-26T23:48:48.118Z,100386.83
2019-02-26T23:51:14.879Z,100386.83
2019-02-26T23:53:41.598Z,100382.89
2019-02-26T23:56:08.372Z,100379.23
2019-02-26T23:58:35.117Z,100387.11
